»·PEaware :: N172TT KVNY-KMHV

N172TT :: KVNY-KMHV

FLIGHT INFORMATION

Flight Status: Arrived
Operator: Privately registered:
United States
More flights under this callsign
Pilot: Thomas T. (19955)
Aircraft: CESSNA 172 SKYHAWK
(C172)
More flights by this aircraft type
Origin: KVNY Van Nuys
United States
Destination: KMHV Mojave
United States
More flights between these airports :: More routes between these airports
Route: +
File this flight plan on PilotEdge
Remarks:
Altitude:
(Current/Filed)
0ft
Speed:
(Current/Filed)
0kts
Departed: 30-Aug-18 01:28 PM
Arrived: 30-Aug-18 02:12 PM
Distance/Time
Traveled:
53nm/0:43
Distance/Time
To Go:
Arrived

Flight Plot

Page will automatically refresh every two minutes.

Flight plan parsing failed; only flown route is shown


Map Options




Map Legend


Flown Route
Filed Route
Departure Airport
Arrival Airport
Navaid (VOR, NDB)
Fix

Horizontal Profiles

Position Reports

Time Latitude Longitude Heading Altitude Ground
Speed
30-Aug-18 13:14 34.209407 -118.491822 84 806ft 0kts
30-Aug-18 13:15 34.209407 -118.491822 84 806ft 0kts
30-Aug-18 13:16 34.209407 -118.491822 84 806ft 0kts
30-Aug-18 13:17 34.211464 -118.491707 357 806ft 19kts
30-Aug-18 13:18 34.216583 -118.492254 357 806ft 15kts
30-Aug-18 13:19 34.219446 -118.492315 120 806ft 0kts
30-Aug-18 13:20 34.219446 -118.492315 120 806ft 0kts
30-Aug-18 13:21 34.219446 -118.492315 120 806ft 0kts
30-Aug-18 13:22 34.219446 -118.492315 120 806ft 0kts
30-Aug-18 13:23 34.219446 -118.492315 120 806ft 0kts
30-Aug-18 13:24 34.219446 -118.492314 120 806ft 0kts
30-Aug-18 13:25 34.219446 -118.492314 120 806ft 0kts
30-Aug-18 13:26 34.219446 -118.492314 120 806ft 0kts
30-Aug-18 13:27 34.219445 -118.492313 120 806ft 0kts
30-Aug-18 13:28 34.219445 -118.492311 120 806ft 0kts
30-Aug-18 13:29 34.216437 -118.491013 174 806ft 57kts
30-Aug-18 13:30 34.195303 -118.487910 169 1470ft 82kts
30-Aug-18 13:31 34.176546 -118.495508 257 2149ft 84kts
30-Aug-18 13:32 34.172729 -118.522704 260 2840ft 81kts
30-Aug-18 13:33 34.169824 -118.548236 281 3246ft 107kts
30-Aug-18 13:35 34.191531 -118.582404 336 3707ft 115kts
30-Aug-18 13:35 34.217609 -118.585219 12 4032ft 115kts
30-Aug-18 13:37 34.253507 -118.573227 17 4497ft 114kts
30-Aug-18 13:37 34.276724 -118.557926 29 4827ft 114kts
30-Aug-18 13:38 34.303869 -118.538137 29 5225ft 114kts
30-Aug-18 13:39 34.331047 -118.518140 29 5545ft 119kts
30-Aug-18 13:40 34.360796 -118.496361 29 5545ft 128kts
30-Aug-18 13:41 34.390995 -118.474436 27 5541ft 119kts
30-Aug-18 13:42 34.419211 -118.456912 23 5537ft 111kts
30-Aug-18 13:43 34.447294 -118.441515 21 5534ft 111kts
30-Aug-18 13:44 34.475424 -118.425945 21 5531ft 111kts
30-Aug-18 13:45 34.503547 -118.410121 21 5528ft 112kts
30-Aug-18 13:46 34.532982 -118.397619 13 5523ft 113kts
30-Aug-18 13:47 34.563184 -118.386106 13 5518ft 115kts
30-Aug-18 13:48 34.593631 -118.374519 13 5592ft 110kts
30-Aug-18 13:49 34.624450 -118.362944 13 5605ft 121kts
30-Aug-18 13:50 34.656914 -118.351039 13 5602ft 123kts
30-Aug-18 13:51 34.689823 -118.339154 13 5599ft 124kts
30-Aug-18 13:52 34.722969 -118.327324 12 5596ft 125kts
30-Aug-18 13:53 34.756162 -118.315253 12 5594ft 125kts
30-Aug-18 13:54 34.789447 -118.302871 12 5591ft 125kts
30-Aug-18 13:55 34.822642 -118.290508 12 5589ft 125kts
30-Aug-18 13:56 34.855737 -118.278091 12 5510ft 120kts
30-Aug-18 13:57 34.886364 -118.266138 14 5206ft 113kts
30-Aug-18 13:58 34.915451 -118.252119 17 4903ft 112kts
30-Aug-18 13:59 34.943467 -118.236397 19 4600ft 111kts
30-Aug-18 14:00 34.970886 -118.219697 19 4295ft 109kts
30-Aug-18 14:01 34.996352 -118.201125 29 4141ft 100kts
30-Aug-18 14:02 35.015795 -118.179816 4 4128ft 84kts
30-Aug-18 14:03 35.024163 -118.196162 250 4129ft 75kts
30-Aug-18 14:04 35.014234 -118.219916 248 4122ft 80kts
30-Aug-18 14:05 35.003564 -118.244130 234 4106ft 84kts
30-Aug-18 14:06 34.983501 -118.234866 88 4095ft 108kts
30-Aug-18 14:07 34.999560 -118.206107 42 4088ft 103kts
30-Aug-18 14:08 35.017933 -118.178846 43 4081ft 106kts
30-Aug-18 14:09 35.034932 -118.148240 54 4075ft 112kts
30-Aug-18 14:10 35.048182 -118.113178 72 4007ft 117kts
30-Aug-18 14:11 35.060877 -118.116851 249 3449ft 99kts
30-Aug-18 14:12 35.059160 -118.145594 267 2740ft 59kts
30-Aug-18 14:13 35.059133 -118.156984 258 2765ft 22kts
30-Aug-18 14:14 35.058235 -118.157764 186 2765ft 0kts

Navigation Log

Ident Type
Flight plan parsing failed, navigation log unavailable